Terminal Aerodrome Forecast
Issued by NWS New Orleans/Baton Rouge, LA

Home | Current Version | Previous Version | Text Only | Print | Product List | Glossary On
Versions: 1 2 3 4 5 6 7 8 9 10 11 12 13 14 15
000
FTUS44 KLIX 252339
TAFBTR
TAF
KBTR 252339Z 2600/2624 00000KT P6SM BKN250
     FM260400 00000KT P6SM FEW030
     FM261700 05006KT P6SM SCT050
      TEMPO 2620/2624 VRB20KT 2SM TSRA BKN025CB=

USA.gov is the U.S. government's official web portal to all federal, state and local government web resources and services.